N67748 CYXU-ZZZZ
Flight info
| Callsign | N67748 |
|---|---|
| Flight time | N/A |
| Altitude | 3000 |
| Route | CYXU/15 VFR NORTHEAST |
| Aircraft | B06 |
Departure
| Time | 2026-05-06 00:22 |
|---|---|
| Airport | London International Airport (CYXU) |
Arrival
| Time | N/A |
|---|---|
| Airport | ZZZZ |
| Time | Latitude | Longitude | Altitude | Speed | Heading |
|---|---|---|---|---|---|
| 2026-05-06 00:15 | 43.02794 | -81.14724 | 899 ft | 0 kts | 239° |
| 2026-05-06 00:17 | 43.02796 | -81.14728 | 903 ft | 3 kts | 241° |
| 2026-05-06 00:17 | 43.02893 | -81.14809 | 1012 ft | 43 kts | 316° |
| 2026-05-06 00:18 | 43.03228 | -81.15199 | 1059 ft | 75 kts | 319° |
| 2026-05-06 00:18 | 43.03693 | -81.15673 | 1008 ft | 90 kts | 323° |
| 2026-05-06 00:18 | 43.04184 | -81.16140 | 1114 ft | 80 kts | 335° |
| 2026-05-06 00:18 | 43.04653 | -81.15828 | 1200 ft | 86 kts | 60° |
| 2026-05-06 00:19 | 43.04936 | -81.15023 | 1219 ft | 105 kts | 58° |
| 2026-05-06 00:19 | 43.05355 | -81.14176 | 1162 ft | 113 kts | 53° |
| 2026-05-06 00:19 | 43.05782 | -81.13264 | 1180 ft | 118 kts | 56° |
| 2026-05-06 00:19 | 43.06220 | -81.12345 | 1275 ft | 113 kts | 55° |
| 2026-05-06 00:20 | 43.06653 | -81.11420 | 1225 ft | 118 kts | 52° |
| 2026-05-06 00:20 | 43.06950 | -81.10401 | 1184 ft | 119 kts | 64° |
| 2026-05-06 00:20 | 43.07279 | -81.09378 | 1176 ft | 112 kts | 60° |
| 2026-05-06 00:20 | 43.07707 | -81.08522 | 1230 ft | 110 kts | 47° |
| 2026-05-06 00:21 | 43.08194 | -81.07629 | 1148 ft | 116 kts | 54° |
| 2026-05-06 00:21 | 43.08499 | -81.07026 | 1222 ft | 108 kts | 54° |
| 2026-05-06 00:21 | 43.08551 | -81.06922 | 1265 ft | 104 kts | 53° |
| 2026-05-06 00:21 | 43.08788 | -81.06488 | 1472 ft | 97 kts | 50° |
| 2026-05-06 00:22 | 43.09141 | -81.05559 | 1378 ft | 117 kts | 56° |
| 2026-05-06 00:22 | 43.09553 | -81.04552 | 1229 ft | 123 kts | 54° |
| 2026-05-06 00:22 | 43.09923 | -81.03605 | 1514 ft | 101 kts | 57° |
| 2026-05-06 00:22 | 43.10197 | -81.02746 | 1880 ft | 99 kts | 64° |
| 2026-05-06 00:23 | 43.10516 | -81.01770 | 1823 ft | 123 kts | 59° |
| 2026-05-06 00:23 | 43.10890 | -81.00710 | 1774 ft | 125 kts | 56° |
| 2026-05-06 00:23 | 43.11236 | -80.99639 | 1642 ft | 130 kts | 61° |
| 2026-05-06 00:23 | 43.11478 | -80.98599 | 1683 ft | 117 kts | 74° |
| 2026-05-06 00:24 | 43.11805 | -80.97620 | 1713 ft | 114 kts | 54° |